Terminal Aerodrome Forecast
Issued by NWS

Home | Current Version | Previous Version | Text Only | Print | Product List | Glossary On
Versions: 1 2 3 4 5 6 7 8 9 10 11 12 13 14 15 16 17 18 19 20 21 22 23 24 25
000
FTPA31 PHFO 212300 RRA
TAFJRF
TAF
PHJR 212341Z 2200/2224 20007KT P6SM FEW045
     FM220300 26007KT P6SM FEW030 SCT060
     FM220900 32004KT P6SM VCSH SCT030 BKN060
     FM222100 35010KT P6SM SCT025 BKN050=

USA.gov is the U.S. government's official web portal to all federal, state and local government web resources and services.